sensor_id;sensor_type;location;lat;lon;timestamp;pressure;altitude;pressure_sealevel;temperature;humidity
28588;BME280;15787;49.662;10.162;2022-08-02T00:00:32;99176.06;;;20.03;82.51
28588;BME280;15787;49.662;10.162;2022-08-02T00:03:00;99173.81;;;20.07;82.22
28588;BME280;15787;49.662;10.162;2022-08-02T00:05:29;99177.38;;;19.88;82.39
28588;BME280;15787;49.662;10.162;2022-08-02T00:07:57;99177.00;;;19.80;82.87
28588;BME280;15787;49.662;10.162;2022-08-02T00:10:25;99177.00;;;19.80;82.91
28588;BME280;15787;49.662;10.162;2022-08-02T00:12:53;99182.72;;;19.86;82.92
28588;BME280;15787;49.662;10.162;2022-08-02T00:15:21;99176.03;;;19.69;83.93
28588;BME280;15787;49.662;10.162;2022-08-02T00:17:49;99182.97;;;19.68;84.86
28588;BME280;15787;49.662;10.162;2022-08-02T00:20:17;99179.25;;;19.62;85.31
28588;BME280;15787;49.662;10.162;2022-08-02T00:22:46;99178.84;;;19.69;84.86
28588;BME280;15787;49.662;10.162;2022-08-02T00:25:14;99186.69;;;19.59;85.22
28588;BME280;15787;49.662;10.162;2022-08-02T00:27:42;99183.56;;;19.72;84.58
28588;BME280;15787;49.662;10.162;2022-08-02T00:30:10;99190.59;;;19.62;85.41
28588;BME280;15787;49.662;10.162;2022-08-02T00:32:38;99186.50;;;19.63;85.89
28588;BME280;15787;49.662;10.162;2022-08-02T00:35:07;99186.16;;;19.90;85.91
28588;BME280;15787;49.662;10.162;2022-08-02T00:37:38;99185.38;;;19.89;85.22
28588;BME280;15787;49.662;10.162;2022-08-02T00:40:08;99185.25;;;20.13;84.61
28588;BME280;15787;49.662;10.162;2022-08-02T00:42:36;99181.19;;;20.19;83.78
28588;BME280;15787;49.662;10.162;2022-08-02T00:45:05;99187.09;;;20.01;83.95
28588;BME280;15787;49.662;10.162;2022-08-02T00:47:33;99185.25;;;20.13;84.04
28588;BME280;15787;49.662;10.162;2022-08-02T00:50:01;99181.06;;;20.08;84.20
28588;BME280;15787;49.662;10.162;2022-08-02T00:52:28;99186.53;;;19.97;83.80
28588;BME280;15787;49.662;10.162;2022-08-02T00:54:56;99183.25;;;20.19;83.21
28588;BME280;15787;49.662;10.162;2022-08-02T00:57:25;99191.16;;;20.30;82.38
28588;BME280;15787;49.662;10.162;2022-08-02T00:59:53;99192.38;;;20.23;82.77
28588;BME280;15787;49.662;10.162;2022-08-02T01:02:21;99199.78;;;20.21;82.97
28588;BME280;15787;49.662;10.162;2022-08-02T01:04:49;99195.31;;;19.99;83.99
28588;BME280;15787;49.662;10.162;2022-08-02T01:07:17;99203.59;;;20.17;83.33
28588;BME280;15787;49.662;10.162;2022-08-02T01:09:45;99210.53;;;20.16;82.67
28588;BME280;15787;49.662;10.162;2022-08-02T01:12:13;99215.44;;;20.16;83.07
28588;BME280;15787;49.662;10.162;2022-08-02T01:14:45;99213.91;;;20.00;83.74
28588;BME280;15787;49.662;10.162;2022-08-02T01:17:19;99210.75;;;19.98;83.83
28588;BME280;15787;49.662;10.162;2022-08-02T01:19:53;99213.91;;;20.00;83.83
28588;BME280;15787;49.662;10.162;2022-08-02T01:22:38;99219.56;;;20.00;83.73
28588;BME280;15787;49.662;10.162;2022-08-02T01:25:36;99215.44;;;20.01;83.04
28588;BME280;15787;49.662;10.162;2022-08-02T01:28:23;99226.78;;;20.01;83.31
28588;BME280;15787;49.662;10.162;2022-08-02T01:30:56;99222.41;;;20.00;83.47
28588;BME280;15787;49.662;10.162;2022-08-02T01:33:29;99222.59;;;19.97;83.72
28588;BME280;15787;49.662;10.162;2022-08-02T01:36:02;99222.03;;;19.78;84.72
28588;BME280;15787;49.662;10.162;2022-08-02T01:38:34;99228.78;;;19.95;84.28
28588;BME280;15787;49.662;10.162;2022-08-02T01:41:06;99229.06;;;19.97;84.13
28588;BME280;15787;49.662;10.162;2022-08-02T01:43:39;99232.69;;;19.98;84.47
28588;BME280;15787;49.662;10.162;2022-08-02T01:46:10;99229.63;;;19.43;86.31
28588;BME280;15787;49.662;10.162;2022-08-02T01:48:40;99231.13;;;19.15;87.48
28588;BME280;15787;49.662;10.162;2022-08-02T01:51:11;99229.28;;;19.50;86.72
28588;BME280;15787;49.662;10.162;2022-08-02T01:53:41;99228.31;;;19.68;85.48
28588;BME280;15787;49.662;10.162;2022-08-02T01:56:11;99230.59;;;19.40;86.59
28588;BME280;15787;49.662;10.162;2022-08-02T01:58:43;99228.00;;;19.51;85.51
28588;BME280;15787;49.662;10.162;2022-08-02T02:01:13;99232.09;;;19.65;85.04
28588;BME280;15787;49.662;10.162;2022-08-02T02:03:45;99221.25;;;19.78;84.82
28588;BME280;15787;49.662;10.162;2022-08-02T02:06:15;99217.72;;;19.68;85.17
28588;BME280;15787;49.662;10.162;2022-08-02T02:08:44;99212.97;;;19.60;85.37
28588;BME280;15787;49.662;10.162;2022-08-02T02:11:12;99214.31;;;19.64;85.98
28588;BME280;15787;49.662;10.162;2022-08-02T02:14:01;99218.81;;;19.41;86.71
28588;BME280;15787;49.662;10.162;2022-08-02T02:16:31;99217.94;;;19.50;86.41
28588;BME280;15787;49.662;10.162;2022-08-02T02:19:01;99220.47;;;19.48;86.43
28588;BME280;15787;49.662;10.162;2022-08-02T02:21:29;99217.03;;;19.29;86.71
28588;BME280;15787;49.662;10.162;2022-08-02T02:23:57;99223.25;;;19.19;86.96
28588;BME280;15787;49.662;10.162;2022-08-02T02:26:26;99216.63;;;19.22;86.75
28588;BME280;15787;49.662;10.162;2022-08-02T02:28:58;99222.38;;;19.27;86.42
28588;BME280;15787;49.662;10.162;2022-08-02T02:31:30;99211.19;;;19.47;86.91
28588;BME280;15787;49.662;10.162;2022-08-02T02:34:02;99212.59;;;19.14;87.38
28588;BME280;15787;49.662;10.162;2022-08-02T02:36:32;99211.44;;;18.82;88.87
28588;BME280;15787;49.662;10.162;2022-08-02T02:39:02;99215.97;;;18.88;88.37
28588;BME280;15787;49.662;10.162;2022-08-02T02:41:39;99210.03;;;18.63;90.55
28588;BME280;15787;49.662;10.162;2022-08-02T02:44:10;99206.69;;;18.88;88.83
28588;BME280;15787;49.662;10.162;2022-08-02T02:46:42;99199.06;;;18.23;90.54
28588;BME280;15787;49.662;10.162;2022-08-02T02:49:11;99201.72;;;18.26;91.16
28588;BME280;15787;49.662;10.162;2022-08-02T02:51:41;99213.69;;;18.21;91.38
28588;BME280;15787;49.662;10.162;2022-08-02T02:54:10;99209.56;;;18.31;91.26
28588;BME280;15787;49.662;10.162;2022-08-02T02:57:00;99212.22;;;18.35;91.29
28588;BME280;15787;49.662;10.162;2022-08-02T02:59:28;99212.34;;;18.08;91.94
28588;BME280;15787;49.662;10.162;2022-08-02T03:01:58;99212.34;;;18.41;90.81
28588;BME280;15787;49.662;10.162;2022-08-02T03:04:27;99225.63;;;18.58;89.83
28588;BME280;15787;49.662;10.162;2022-08-02T03:07:16;99225.44;;;18.29;90.39
28588;BME280;15787;49.662;10.162;2022-08-02T03:09:44;99223.63;;;18.08;91.99
28588;BME280;15787;49.662;10.162;2022-08-02T03:12:22;99225.25;;;18.00;92.08
28588;BME280;15787;49.662;10.162;2022-08-02T03:14:59;99224.03;;;17.92;92.30
28588;BME280;15787;49.662;10.162;2022-08-02T03:17:38;99228.84;;;18.00;92.41
28588;BME280;15787;49.662;10.162;2022-08-02T03:20:10;99235.94;;;17.96;92.53
28588;BME280;15787;49.662;10.162;2022-08-02T03:22:38;99232.97;;;17.90;93.06
28588;BME280;15787;49.662;10.162;2022-08-02T03:25:07;99235.34;;;17.83;93.72
28588;BME280;15787;49.662;10.162;2022-08-02T03:27:35;99240.81;;;17.95;93.29
28588;BME280;15787;49.662;10.162;2022-08-02T03:30:05;99239.41;;;17.91;93.62
28588;BME280;15787;49.662;10.162;2022-08-02T03:32:34;99245.34;;;18.02;93.50
28588;BME280;15787;49.662;10.162;2022-08-02T03:35:06;99250.06;;;17.96;93.39
28588;BME280;15787;49.662;10.162;2022-08-02T03:37:36;99241.88;;;17.98;93.42
28588;BME280;15787;49.662;10.162;2022-08-02T03:40:06;99239.94;;;17.71;94.13
28588;BME280;15787;49.662;10.162;2022-08-02T03:42:35;99232.22;;;17.81;94.98
28588;BME280;15787;49.662;10.162;2022-08-02T03:45:04;99240.06;;;17.86;94.90
28588;BME280;15787;49.662;10.162;2022-08-02T03:47:36;99237.38;;;17.91;94.13
28588;BME280;15787;49.662;10.162;2022-08-02T03:50:07;99242.38;;;17.96;93.48
28588;BME280;15787;49.662;10.162;2022-08-02T03:52:37;99241.56;;;18.05;93.14
28588;BME280;15787;49.662;10.162;2022-08-02T03:55:07;99248.88;;;17.79;93.23
28588;BME280;15787;49.662;10.162;2022-08-02T03:57:36;99244.06;;;17.61;94.72
28588;BME280;15787;49.662;10.162;2022-08-02T04:00:06;99251.28;;;17.53;94.36
28588;BME280;15787;49.662;10.162;2022-08-02T04:02:37;99240.00;;;17.17;95.65
28588;BME280;15787;49.662;10.162;2022-08-02T04:05:07;99239.34;;;17.49;96.80
28588;BME280;15787;49.662;10.162;2022-08-02T04:07:35;99237.72;;;17.84;94.91
28588;BME280;15787;49.662;10.162;2022-08-02T04:10:23;99253.13;;;17.47;94.71
28588;BME280;15787;49.662;10.162;2022-08-02T04:12:51;99262.44;;;17.20;96.20
28588;BME280;15787;49.662;10.162;2022-08-02T04:15:19;99254.41;;;17.37;95.40
28588;BME280;15787;49.662;10.162;2022-08-02T04:17:53;99261.47;;;17.41;96.46
28588;BME280;15787;49.662;10.162;2022-08-02T04:20:26;99268.06;;;17.56;94.59
28588;BME280;15787;49.662;10.162;2022-08-02T04:22:57;99265.22;;;17.65;94.62
28588;BME280;15787;49.662;10.162;2022-08-02T04:25:27;99272.66;;;17.96;93.76
28588;BME280;15787;49.662;10.162;2022-08-02T04:28:06;99278.09;;;17.48;94.90
28588;BME280;15787;49.662;10.162;2022-08-02T04:30:44;99283.06;;;17.81;94.36
28588;BME280;15787;49.662;10.162;2022-08-02T04:33:12;99279.34;;;17.38;95.67
28588;BME280;15787;49.662;10.162;2022-08-02T04:35:42;99288.09;;;17.49;95.05
28588;BME280;15787;49.662;10.162;2022-08-02T04:38:11;99279.66;;;17.67;94.55
28588;BME280;15787;49.662;10.162;2022-08-02T04:40:39;99287.66;;;18.20;92.77
28588;BME280;15787;49.662;10.162;2022-08-02T04:43:07;99278.59;;;18.07;92.38
28588;BME280;15787;49.662;10.162;2022-08-02T04:45:36;99285.56;;;17.88;93.23
28588;BME280;15787;49.662;10.162;2022-08-02T04:48:04;99290.47;;;17.69;94.05
28588;BME280;15787;49.662;10.162;2022-08-02T04:50:32;99299.69;;;17.88;93.86
28588;BME280;15787;49.662;10.162;2022-08-02T04:53:01;99292.19;;;17.76;93.74
28588;BME280;15787;49.662;10.162;2022-08-02T04:55:29;99295.13;;;17.90;92.86
28588;BME280;15787;49.662;10.162;2022-08-02T04:57:57;99302.66;;;18.02;92.91
28588;BME280;15787;49.662;10.162;2022-08-02T05:00:32;99298.50;;;17.61;94.50
28588;BME280;15787;49.662;10.162;2022-08-02T05:03:01;99302.84;;;17.90;93.98
28588;BME280;15787;49.662;10.162;2022-08-02T05:05:29;99294.72;;;17.19;96.86
28588;BME280;15787;49.662;10.162;2022-08-02T05:07:57;99287.50;;;17.18;97.33
28588;BME280;15787;49.662;10.162;2022-08-02T05:10:26;99286.88;;;17.50;97.09
28588;BME280;15787;49.662;10.162;2022-08-02T05:12:54;99288.13;;;17.58;96.53
28588;BME280;15787;49.662;10.162;2022-08-02T05:15:22;99288.13;;;17.67;95.60
28588;BME280;15787;49.662;10.162;2022-08-02T05:17:50;99283.09;;;17.72;95.74
28588;BME280;15787;49.662;10.162;2022-08-02T05:20:18;99287.19;;;17.71;95.01
28588;BME280;15787;49.662;10.162;2022-08-02T05:22:46;99290.75;;;17.89;95.15
28588;BME280;15787;49.662;10.162;2022-08-02T05:25:14;99287.63;;;17.87;93.83
28588;BME280;15787;49.662;10.162;2022-08-02T05:27:43;99284.22;;;18.16;94.23
28588;BME280;15787;49.662;10.162;2022-08-02T05:30:11;99291.81;;;18.43;92.48
28588;BME280;15787;49.662;10.162;2022-08-02T05:32:44;99291.81;;;18.33;91.97
28588;BME280;15787;49.662;10.162;2022-08-02T05:35:41;99299.31;;;18.55;91.42
28588;BME280;15787;49.662;10.162;2022-08-02T05:38:09;99299.84;;;18.91;90.29
28588;BME280;15787;49.662;10.162;2022-08-02T05:40:37;99305.88;;;19.08;89.21
28588;BME280;15787;49.662;10.162;2022-08-02T05:43:21;99299.84;;;18.91;90.02
28588;BME280;15787;49.662;10.162;2022-08-02T05:45:50;99310.59;;;18.87;90.89
28588;BME280;15787;49.662;10.162;2022-08-02T05:48:20;99317.63;;;18.92;90.88
28588;BME280;15787;49.662;10.162;2022-08-02T05:50:59;99314.81;;;19.39;89.22
28588;BME280;15787;49.662;10.162;2022-08-02T05:53:35;99305.38;;;19.72;87.40
28588;BME280;15787;49.662;10.162;2022-08-02T05:56:11;99305.47;;;19.77;87.14
28588;BME280;15787;49.662;10.162;2022-08-02T05:58:49;99313.59;;;19.99;85.85
28588;BME280;15787;49.662;10.162;2022-08-02T06:01:24;99312.13;;;19.74;87.14
28588;BME280;15787;49.662;10.162;2022-08-02T06:03:56;99312.09;;;20.03;85.64
28588;BME280;15787;49.662;10.162;2022-08-02T06:06:24;99315.56;;;19.93;85.92
28588;BME280;15787;49.662;10.162;2022-08-02T06:08:57;99321.09;;;20.16;85.71
28588;BME280;15787;49.662;10.162;2022-08-02T06:11:33;99316.81;;;20.21;84.87
28588;BME280;15787;49.662;10.162;2022-08-02T06:14:03;99312.41;;;20.20;85.87
28588;BME280;15787;49.662;10.162;2022-08-02T06:16:32;99319.63;;;20.50;84.84
28588;BME280;15787;49.662;10.162;2022-08-02T06:19:08;99332.09;;;20.73;83.78
28588;BME280;15787;49.662;10.162;2022-08-02T06:21:39;99325.16;;;20.74;83.41
28588;BME280;15787;49.662;10.162;2022-08-02T06:24:27;99324.63;;;21.10;82.07
28588;BME280;15787;49.662;10.162;2022-08-02T06:26:57;99320.72;;;21.08;81.74
28588;BME280;15787;49.662;10.162;2022-08-02T06:29:28;99322.38;;;21.14;80.88
28588;BME280;15787;49.662;10.162;2022-08-02T06:32:05;99323.38;;;21.31;80.42
28588;BME280;15787;49.662;10.162;2022-08-02T06:34:38;99325.53;;;21.62;78.89
28588;BME280;15787;49.662;10.162;2022-08-02T06:37:13;99314.97;;;21.63;78.94
28588;BME280;15787;49.662;10.162;2022-08-02T06:39:43;99322.56;;;21.97;78.86
28588;BME280;15787;49.662;10.162;2022-08-02T06:42:15;99313.69;;;21.89;78.62
28588;BME280;15787;49.662;10.162;2022-08-02T06:44:56;99314.53;;;21.95;78.07
28588;BME280;15787;49.662;10.162;2022-08-02T06:47:24;99303.88;;;21.65;79.28
28588;BME280;15787;49.662;10.162;2022-08-02T06:49:54;99313.22;;;21.91;78.37
28588;BME280;15787;49.662;10.162;2022-08-02T06:52:24;99317.13;;;22.25;77.50
28588;BME280;15787;49.662;10.162;2022-08-02T06:54:57;99317.97;;;22.31;77.11
28588;BME280;15787;49.662;10.162;2022-08-02T06:57:25;99304.09;;;22.44;76.49
28588;BME280;15787;49.662;10.162;2022-08-02T06:59:53;99309.63;;;22.58;76.43
28588;BME280;15787;49.662;10.162;2022-08-02T07:02:23;99302.44;;;22.63;76.84
28588;BME280;15787;49.662;10.162;2022-08-02T07:04:51;99312.69;;;22.86;75.55
28588;BME280;15787;49.662;10.162;2022-08-02T07:07:19;99310.84;;;22.78;75.27
28588;BME280;15787;49.662;10.162;2022-08-02T07:09:46;99302.00;;;22.76;75.63
28588;BME280;15787;49.662;10.162;2022-08-02T07:12:28;99310.53;;;23.18;74.70
28588;BME280;15787;49.662;10.162;2022-08-02T07:14:56;99310.44;;;23.01;73.93
28588;BME280;15787;49.662;10.162;2022-08-02T07:17:26;99301.56;;;22.88;74.92
28588;BME280;15787;49.662;10.162;2022-08-02T07:19:54;99307.88;;;23.03;74.83
28588;BME280;15787;49.662;10.162;2022-08-02T07:22:22;99309.38;;;22.99;74.63
28588;BME280;15787;49.662;10.162;2022-08-02T07:24:53;99316.41;;;23.51;73.19
28588;BME280;15787;49.662;10.162;2022-08-02T07:27:21;99316.91;;;23.55;72.62
28588;BME280;15787;49.662;10.162;2022-08-02T07:29:49;99315.69;;;23.95;72.15
28588;BME280;15787;49.662;10.162;2022-08-02T07:32:19;99315.75;;;24.12;71.31
28588;BME280;15787;49.662;10.162;2022-08-02T07:34:49;99300.47;;;24.37;70.72
28588;BME280;15787;49.662;10.162;2022-08-02T07:37:21;99317.06;;;24.27;71.09
28588;BME280;15787;49.662;10.162;2022-08-02T07:40:10;99312.06;;;23.83;70.97
28588;BME280;15787;49.662;10.162;2022-08-02T07:42:40;99310.53;;;23.94;71.63
28588;BME280;15787;49.662;10.162;2022-08-02T07:45:09;99298.66;;;24.45;70.35
28588;BME280;15787;49.662;10.162;2022-08-02T07:47:37;99300.72;;;24.56;69.88
28588;BME280;15787;49.662;10.162;2022-08-02T07:50:08;99307.47;;;24.30;69.84
28588;BME280;15787;49.662;10.162;2022-08-02T07:52:39;99301.75;;;24.58;70.21
28588;BME280;15787;49.662;10.162;2022-08-02T07:55:08;99316.34;;;25.40;68.20
28588;BME280;15787;49.662;10.162;2022-08-02T07:57:37;99305.09;;;25.58;67.35
28588;BME280;15787;49.662;10.162;2022-08-02T08:00:13;99310.94;;;25.20;67.64
28588;BME280;15787;49.662;10.162;2022-08-02T08:02:41;99313.22;;;25.95;65.85
28588;BME280;15787;49.662;10.162;2022-08-02T08:05:11;99312.91;;;25.99;65.88
28588;BME280;15787;49.662;10.162;2022-08-02T08:07:39;99309.50;;;26.06;65.05
28588;BME280;15787;49.662;10.162;2022-08-02T08:10:08;99320.72;;;25.98;65.44
28588;BME280;15787;49.662;10.162;2022-08-02T08:12:36;99306.13;;;26.02;65.61
28588;BME280;15787;49.662;10.162;2022-08-02T08:15:04;99308.22;;;26.36;63.96
28588;BME280;15787;49.662;10.162;2022-08-02T08:17:32;99308.13;;;26.48;62.83
28588;BME280;15787;49.662;10.162;2022-08-02T08:20:00;99318.06;;;26.76;62.67
28588;BME280;15787;49.662;10.162;2022-08-02T08:22:30;99302.66;;;26.79;61.94
28588;BME280;15787;49.662;10.162;2022-08-02T08:24:57;99302.56;;;26.85;62.38
28588;BME280;15787;49.662;10.162;2022-08-02T08:27:25;99302.34;;;27.07;61.20
28588;BME280;15787;49.662;10.162;2022-08-02T08:29:53;99306.22;;;27.10;61.03
28588;BME280;15787;49.662;10.162;2022-08-02T08:32:21;99303.44;;;27.04;62.02
28588;BME280;15787;49.662;10.162;2022-08-02T08:34:49;99309.91;;;27.53;60.46
28588;BME280;15787;49.662;10.162;2022-08-02T08:37:17;99310.25;;;28.00;60.41
28588;BME280;15787;49.662;10.162;2022-08-02T08:39:48;99306.34;;;27.23;60.46
28588;BME280;15787;49.662;10.162;2022-08-02T08:42:23;99296.03;;;27.76;60.03
28588;BME280;15787;49.662;10.162;2022-08-02T08:44:51;99311.50;;;28.04;59.35
28588;BME280;15787;49.662;10.162;2022-08-02T08:47:19;99304.25;;;28.67;57.47
28588;BME280;15787;49.662;10.162;2022-08-02T08:49:51;99293.31;;;28.78;57.62
28588;BME280;15787;49.662;10.162;2022-08-02T08:52:22;99297.13;;;29.26;55.66
28588;BME280;15787;49.662;10.162;2022-08-02T08:54:54;99300.81;;;28.68;56.63
28588;BME280;15787;49.662;10.162;2022-08-02T08:57:26;99285.28;;;28.58;57.40
28588;BME280;15787;49.662;10.162;2022-08-02T08:59:55;99284.50;;;29.03;56.71
28588;BME280;15787;49.662;10.162;2022-08-02T09:02:23;99296.53;;;28.88;57.33
28588;BME280;15787;49.662;10.162;2022-08-02T09:04:54;99290.91;;;29.22;55.91
28588;BME280;15787;49.662;10.162;2022-08-02T09:07:22;99292.06;;;28.61;57.46
28588;BME280;15787;49.662;10.162;2022-08-02T09:09:50;99294.91;;;29.32;55.54
28588;BME280;15787;49.662;10.162;2022-08-02T09:12:19;99300.81;;;29.60;54.81
28588;BME280;15787;49.662;10.162;2022-08-02T09:14:50;99294.91;;;29.32;53.78
28588;BME280;15787;49.662;10.162;2022-08-02T09:17:18;99292.97;;;29.61;55.00
28588;BME280;15787;49.662;10.162;2022-08-02T09:20:04;99290.06;;;29.87;54.45
28588;BME280;15787;49.662;10.162;2022-08-02T09:22:32;99287.00;;;29.59;54.32
28588;BME280;15787;49.662;10.162;2022-08-02T09:25:00;99288.94;;;29.90;53.66
28588;BME280;15787;49.662;10.162;2022-08-02T09:27:34;99289.09;;;29.58;54.39
28588;BME280;15787;49.662;10.162;2022-08-02T09:30:06;99288.50;;;28.55;55.96
28588;BME280;15787;49.662;10.162;2022-08-02T09:32:44;99283.75;;;28.57;55.45
28588;BME280;15787;49.662;10.162;2022-08-02T09:35:30;99291.78;;;28.91;55.43
28588;BME280;15787;49.662;10.162;2022-08-02T09:38:18;99280.97;;;29.70;53.83
28588;BME280;15787;49.662;10.162;2022-08-02T09:40:46;99275.63;;;30.21;53.30
28588;BME280;15787;49.662;10.162;2022-08-02T09:43:15;99278.16;;;29.57;53.13
28588;BME280;15787;49.662;10.162;2022-08-02T09:45:43;99267.47;;;30.12;52.58
28588;BME280;15787;49.662;10.162;2022-08-02T09:48:11;99276.28;;;30.68;51.94
28588;BME280;15787;49.662;10.162;2022-08-02T09:50:40;99282.22;;;30.29;52.03
28588;BME280;15787;49.662;10.162;2022-08-02T09:53:11;99281.31;;;30.13;52.73
28588;BME280;15787;49.662;10.162;2022-08-02T09:55:39;99275.84;;;30.23;51.97
28588;BME280;15787;49.662;10.162;2022-08-02T09:58:19;99277.50;;;30.80;52.02
28588;BME280;15787;49.662;10.162;2022-08-02T10:00:53;99283.94;;;31.14;50.53
28588;BME280;15787;49.662;10.162;2022-08-02T10:03:21;99275.91;;;31.28;50.42
28588;BME280;15787;49.662;10.162;2022-08-02T10:06:01;99275.47;;;31.45;50.48
28588;BME280;15787;49.662;10.162;2022-08-02T10:08:31;99275.22;;;30.58;51.21
28588;BME280;15787;49.662;10.162;2022-08-02T10:11:00;99270.47;;;31.17;50.47
28588;BME280;15787;49.662;10.162;2022-08-02T10:13:32;99274.22;;;31.40;48.86
28588;BME280;15787;49.662;10.162;2022-08-02T10:16:00;99267.66;;;31.68;49.40
28588;BME280;15787;49.662;10.162;2022-08-02T10:18:29;99275.38;;;31.73;49.26
28588;BME280;15787;49.662;10.162;2022-08-02T10:21:11;99259.44;;;31.95;48.16
28588;BME280;15787;49.662;10.162;2022-08-02T10:23:42;99265.47;;;32.04;48.33
28588;BME280;15787;49.662;10.162;2022-08-02T10:26:14;99256.03;;;32.04;48.16
28588;BME280;15787;49.662;10.162;2022-08-02T10:28:47;99254.69;;;32.05;48.08
28588;BME280;15787;49.662;10.162;2022-08-02T10:31:21;99251.25;;;31.55;47.86
28588;BME280;15787;49.662;10.162;2022-08-02T10:33:51;99246.16;;;31.92;47.97
28588;BME280;15787;49.662;10.162;2022-08-02T10:36:21;99250.41;;;31.98;48.01
28588;BME280;15787;49.662;10.162;2022-08-02T10:38:53;99254.16;;;32.44;47.32
28588;BME280;15787;49.662;10.162;2022-08-02T10:41:41;99244.63;;;31.91;48.10
28588;BME280;15787;49.662;10.162;2022-08-02T10:44:21;99243.75;;;32.86;45.25
28588;BME280;15787;49.662;10.162;2022-08-02T10:46:51;99237.63;;;33.85;44.67
28588;BME280;15787;49.662;10.162;2022-08-02T10:49:19;99240.56;;;30.99;46.76
28588;BME280;15787;49.662;10.162;2022-08-02T10:52:08;99232.31;;;30.75;47.96
28588;BME280;15787;49.662;10.162;2022-08-02T10:54:39;99234.44;;;31.03;47.80
28588;BME280;15787;49.662;10.162;2022-08-02T10:57:18;99234.13;;;32.31;45.70
28588;BME280;15787;49.662;10.162;2022-08-02T10:59:49;99235.56;;;33.30;44.67
28588;BME280;15787;49.662;10.162;2022-08-02T11:02:36;99242.03;;;32.53;45.95
28588;BME280;15787;49.662;10.162;2022-08-02T11:05:15;99240.28;;;32.58;44.91
28588;BME280;15787;49.662;10.162;2022-08-02T11:07:45;99235.41;;;32.98;44.62
28588;BME280;15787;49.662;10.162;2022-08-02T11:10:42;99234.91;;;33.47;45.20
28588;BME280;15787;49.662;10.162;2022-08-02T11:13:11;99225.72;;;33.73;44.23
28588;BME280;15787;49.662;10.162;2022-08-02T11:16:03;99217.44;;;34.51;42.46
28588;BME280;15787;49.662;10.162;2022-08-02T11:19:03;99225.53;;;33.24;43.11
28588;BME280;15787;49.662;10.162;2022-08-02T11:21:34;99224.44;;;32.96;44.03
28588;BME280;15787;49.662;10.162;2022-08-02T11:24:24;99212.97;;;33.76;43.91
28588;BME280;15787;49.662;10.162;2022-08-02T11:26:55;99211.09;;;33.96;43.39
28588;BME280;15787;49.662;10.162;2022-08-02T11:29:31;99203.16;;;34.28;42.27
28588;BME280;15787;49.662;10.162;2022-08-02T11:32:06;99206.91;;;35.05;41.35
28588;BME280;15787;49.662;10.162;2022-08-02T11:34:35;99200.19;;;33.79;41.64
28588;BME280;15787;49.662;10.162;2022-08-02T11:37:05;99203.25;;;33.89;41.98
28588;BME280;15787;49.662;10.162;2022-08-02T11:39:33;99195.53;;;35.17;40.31
28588;BME280;15787;49.662;10.162;2022-08-02T11:42:01;99202.38;;;34.53;40.99
28588;BME280;15787;49.662;10.162;2022-08-02T11:44:39;99196.19;;;34.07;41.70
28588;BME280;15787;49.662;10.162;2022-08-02T11:47:08;99190.56;;;34.75;41.08
28588;BME280;15787;49.662;10.162;2022-08-02T11:49:36;99187.72;;;33.22;43.09
28588;BME280;15787;49.662;10.162;2022-08-02T11:52:06;99187.84;;;33.39;42.81
28588;BME280;15787;49.662;10.162;2022-08-02T11:54:37;99188.63;;;32.69;43.79
28588;BME280;15787;49.662;10.162;2022-08-02T11:57:11;99190.69;;;32.91;43.88
28588;BME280;15787;49.662;10.162;2022-08-02T11:59:47;99187.03;;;31.70;44.77
28588;BME280;15787;49.662;10.162;2022-08-02T12:02:16;99183.41;;;30.90;45.53
28588;BME280;15787;49.662;10.162;2022-08-02T12:04:51;99176.66;;;31.97;44.96
28588;BME280;15787;49.662;10.162;2022-08-02T12:07:27;99185.00;;;32.01;44.62
28588;BME280;15787;49.662;10.162;2022-08-02T12:10:02;99178.00;;;31.96;44.57
28588;BME280;15787;49.662;10.162;2022-08-02T12:12:30;99176.31;;;32.61;42.99
28588;BME280;15787;49.662;10.162;2022-08-02T12:14:58;99175.50;;;32.76;43.82
28588;BME280;15787;49.662;10.162;2022-08-02T12:17:27;99173.94;;;33.45;42.82
28588;BME280;15787;49.662;10.162;2022-08-02T12:20:13;99170.25;;;33.84;42.09
28588;BME280;15787;49.662;10.162;2022-08-02T12:22:42;99176.16;;;34.85;40.15
28588;BME280;15787;49.662;10.162;2022-08-02T12:25:19;99175.50;;;35.11;40.30
28588;BME280;15787;49.662;10.162;2022-08-02T12:28:15;99178.28;;;35.02;40.11
28588;BME280;15787;49.662;10.162;2022-08-02T12:30:52;99174.63;;;33.93;41.67
28588;BME280;15787;49.662;10.162;2022-08-02T12:33:22;99181.34;;;35.38;39.64
28588;BME280;15787;49.662;10.162;2022-08-02T12:35:51;99181.03;;;35.17;38.87
28588;BME280;15787;49.662;10.162;2022-08-02T12:38:19;99175.53;;;35.38;38.49
28588;BME280;15787;49.662;10.162;2022-08-02T12:40:48;99168.66;;;35.16;40.08
28588;BME280;15787;49.662;10.162;2022-08-02T12:43:18;99170.75;;;35.33;39.92
28588;BME280;15787;49.662;10.162;2022-08-02T12:45:50;99167.03;;;35.49;38.13
28588;BME280;15787;49.662;10.162;2022-08-02T12:48:31;99165.09;;;33.35;40.02
28588;BME280;15787;49.662;10.162;2022-08-02T12:51:17;99159.72;;;32.77;41.73
28588;BME280;15787;49.662;10.162;2022-08-02T12:53:45;99167.13;;;33.18;40.77
28588;BME280;15787;49.662;10.162;2022-08-02T12:56:25;99159.66;;;34.04;40.20
28588;BME280;15787;49.662;10.162;2022-08-02T12:58:54;99156.91;;;34.13;39.72
28588;BME280;15787;49.662;10.162;2022-08-02T13:01:24;99146.38;;;34.84;39.28
28588;BME280;15787;49.662;10.162;2022-08-02T13:03:53;99144.00;;;35.78;38.17
28588;BME280;15787;49.662;10.162;2022-08-02T13:06:38;99140.47;;;36.06;37.69
28588;BME280;15787;49.662;10.162;2022-08-02T13:09:12;99143.38;;;36.06;37.92
28588;BME280;15787;49.662;10.162;2022-08-02T13:11:41;99144.97;;;36.27;37.77
28588;BME280;15787;49.662;10.162;2022-08-02T13:14:10;99144.09;;;35.44;38.27